ETEB

Ansbach Army Heliport

Germany
METAR ETEB 241156Z AUTO 31009G16KT 9999 SCT041 BKN050 12/02 A3048 RMK AO2 SLP339 70067 T01160015 10118 20064 51003 $
Observed Flight Rules
Sep-24 @ 11:56 UTC (20 minutes ago) Visual Flight Rules
Wind Visibility Clouds
310° at 9 knots
 Gusting to 16 knots
10,000+ meters
  • Scattered at 4,100' AGL
  • Broken at 5,000' AGL
Temperatures Readings
Current 12°C / 54°F
Dewpoint 2°C / 36°F
Humidity 51%
Altimeter 30.48" Hg
Pressure 1033.9 hPa
Elevation 467
METAR ETEB 241156Z AUTO 31009G16KT 9999 SCT041 BKN050 12/02 A3048 RMK AO2 SLP339 70067 T01160015 10118 20064 51003 $
Observed Flight Rules
Sep-24 @ 11:56 UTC
(20 minutes ago)
VFR
Wind Visibility
310° at 9 knots
 Gusting to 16 knots
10,000+ meters
Clouds
  • Scattered at 4,100' AGL
  • Broken at 5,000' AGL
Temperature Dewpoint
12°C / 54°F 2°C / 36°F
Humidity Altimeter Pressure
51% 30.48" Hg 1033.9 hPa